sensor_id;sensor_type;location;lat;lon;timestamp;P1;durP1;ratioP1;P2;durP2;ratioP2
65459;SDS011;52058;49.822;6.754;2023-03-01T00:00:03;10.82;;;5.15;;
65459;SDS011;52058;49.822;6.754;2023-03-01T00:02:32;10.52;;;5.63;;
65459;SDS011;52058;49.822;6.754;2023-03-01T00:05:00;12.00;;;6.03;;
65459;SDS011;52058;49.822;6.754;2023-03-01T00:07:26;9.88;;;5.72;;
65459;SDS011;52058;49.822;6.754;2023-03-01T00:09:53;9.75;;;6.50;;
65459;SDS011;52058;49.822;6.754;2023-03-01T00:12:19;10.18;;;6.10;;
65459;SDS011;52058;49.822;6.754;2023-03-01T00:14:46;10.45;;;6.47;;
65459;SDS011;52058;49.822;6.754;2023-03-01T00:17:12;14.18;;;5.88;;
65459;SDS011;52058;49.822;6.754;2023-03-01T00:19:39;9.93;;;5.70;;
65459;SDS011;52058;49.822;6.754;2023-03-01T00:22:07;11.18;;;6.18;;
65459;SDS011;52058;49.822;6.754;2023-03-01T00:24:34;13.82;;;6.70;;
65459;SDS011;52058;49.822;6.754;2023-03-01T00:27:00;11.43;;;6.22;;
65459;SDS011;52058;49.822;6.754;2023-03-01T00:29:27;10.63;;;5.72;;
65459;SDS011;52058;49.822;6.754;2023-03-01T00:31:53;14.65;;;7.72;;
65459;SDS011;52058;49.822;6.754;2023-03-01T00:34:20;11.80;;;7.53;;
65459;SDS011;52058;49.822;6.754;2023-03-01T00:36:47;12.50;;;6.63;;
65459;SDS011;52058;49.822;6.754;2023-03-01T00:39:14;14.18;;;6.82;;
65459;SDS011;52058;49.822;6.754;2023-03-01T00:41:42;12.70;;;6.75;;
65459;SDS011;52058;49.822;6.754;2023-03-01T00:44:09;12.57;;;6.35;;
65459;SDS011;52058;49.822;6.754;2023-03-01T00:46:36;12.68;;;6.80;;
65459;SDS011;52058;49.822;6.754;2023-03-01T00:49:03;10.65;;;6.47;;
65459;SDS011;52058;49.822;6.754;2023-03-01T00:51:30;10.00;;;6.07;;
65459;SDS011;52058;49.822;6.754;2023-03-01T00:53:57;8.80;;;5.65;;
65459;SDS011;52058;49.822;6.754;2023-03-01T00:56:27;11.68;;;6.10;;
65459;SDS011;52058;49.822;6.754;2023-03-01T00:58:53;10.57;;;6.15;;
65459;SDS011;52058;49.822;6.754;2023-03-01T01:01:20;9.02;;;5.70;;
65459;SDS011;52058;49.822;6.754;2023-03-01T01:03:49;9.82;;;5.93;;
65459;SDS011;52058;49.822;6.754;2023-03-01T01:06:18;11.85;;;6.00;;
65459;SDS011;52058;49.822;6.754;2023-03-01T01:08:46;11.07;;;6.40;;
65459;SDS011;52058;49.822;6.754;2023-03-01T01:11:13;12.43;;;6.95;;
65459;SDS011;52058;49.822;6.754;2023-03-01T01:13:43;11.10;;;6.25;;
65459;SDS011;52058;49.822;6.754;2023-03-01T01:16:10;10.77;;;6.30;;
65459;SDS011;52058;49.822;6.754;2023-03-01T01:18:37;10.18;;;5.85;;
65459;SDS011;52058;49.822;6.754;2023-03-01T01:21:05;10.07;;;6.38;;
65459;SDS011;52058;49.822;6.754;2023-03-01T01:23:33;10.75;;;6.95;;
65459;SDS011;52058;49.822;6.754;2023-03-01T01:26:03;10.65;;;6.03;;
65459;SDS011;52058;49.822;6.754;2023-03-01T01:28:30;11.10;;;6.78;;
65459;SDS011;52058;49.822;6.754;2023-03-01T01:30:58;9.82;;;6.00;;
65459;SDS011;52058;49.822;6.754;2023-03-01T01:33:25;12.57;;;6.22;;
65459;SDS011;52058;49.822;6.754;2023-03-01T01:35:52;12.15;;;6.38;;
65459;SDS011;52058;49.822;6.754;2023-03-01T01:38:19;13.18;;;6.53;;
65459;SDS011;52058;49.822;6.754;2023-03-01T01:40:47;11.48;;;7.05;;
65459;SDS011;52058;49.822;6.754;2023-03-01T01:43:16;12.50;;;6.97;;
65459;SDS011;52058;49.822;6.754;2023-03-01T01:45:45;11.45;;;5.68;;
65459;SDS011;52058;49.822;6.754;2023-03-01T01:48:14;8.93;;;5.97;;
65459;SDS011;52058;49.822;6.754;2023-03-01T01:50:44;10.53;;;6.67;;
65459;SDS011;52058;49.822;6.754;2023-03-01T01:53:14;11.18;;;6.38;;
65459;SDS011;52058;49.822;6.754;2023-03-01T01:55:45;12.95;;;6.43;;
65459;SDS011;52058;49.822;6.754;2023-03-01T01:58:15;11.07;;;6.45;;
65459;SDS011;52058;49.822;6.754;2023-03-01T02:00:45;12.52;;;6.53;;
65459;SDS011;52058;49.822;6.754;2023-03-01T02:03:12;9.55;;;5.72;;
65459;SDS011;52058;49.822;6.754;2023-03-01T02:05:45;12.55;;;6.97;;
65459;SDS011;52058;49.822;6.754;2023-03-01T02:08:16;12.30;;;6.65;;
65459;SDS011;52058;49.822;6.754;2023-03-01T02:10:45;12.65;;;6.85;;
65459;SDS011;52058;49.822;6.754;2023-03-01T02:13:13;9.38;;;6.05;;
65459;SDS011;52058;49.822;6.754;2023-03-01T02:15:40;11.20;;;6.40;;
65459;SDS011;52058;49.822;6.754;2023-03-01T02:18:09;9.13;;;5.60;;
65459;SDS011;52058;49.822;6.754;2023-03-01T02:20:43;11.95;;;6.82;;
65459;SDS011;52058;49.822;6.754;2023-03-01T02:23:16;10.90;;;6.45;;
65459;SDS011;52058;49.822;6.754;2023-03-01T02:25:46;12.75;;;6.78;;
65459;SDS011;52058;49.822;6.754;2023-03-01T02:28:23;11.95;;;6.45;;
65459;SDS011;52058;49.822;6.754;2023-03-01T02:30:51;10.70;;;6.20;;
65459;SDS011;52058;49.822;6.754;2023-03-01T02:33:38;12.02;;;6.20;;
65459;SDS011;52058;49.822;6.754;2023-03-01T02:36:06;11.63;;;6.30;;
65459;SDS011;52058;49.822;6.754;2023-03-01T02:38:36;11.20;;;6.53;;
65459;SDS011;52058;49.822;6.754;2023-03-01T02:41:03;11.15;;;5.53;;
65459;SDS011;52058;49.822;6.754;2023-03-01T02:43:33;12.13;;;6.53;;
65459;SDS011;52058;49.822;6.754;2023-03-01T02:46:02;13.00;;;7.25;;
65459;SDS011;52058;49.822;6.754;2023-03-01T02:48:38;13.48;;;6.82;;
65459;SDS011;52058;49.822;6.754;2023-03-01T02:51:07;15.02;;;7.32;;
65459;SDS011;52058;49.822;6.754;2023-03-01T02:53:45;10.90;;;6.68;;
65459;SDS011;52058;49.822;6.754;2023-03-01T02:56:20;11.60;;;7.05;;
65459;SDS011;52058;49.822;6.754;2023-03-01T02:58:48;12.88;;;7.32;;
65459;SDS011;52058;49.822;6.754;2023-03-01T03:01:16;13.40;;;7.07;;
65459;SDS011;52058;49.822;6.754;2023-03-01T03:03:43;13.10;;;7.13;;
65459;SDS011;52058;49.822;6.754;2023-03-01T03:06:10;13.65;;;7.15;;
65459;SDS011;52058;49.822;6.754;2023-03-01T03:08:36;12.00;;;7.85;;
65459;SDS011;52058;49.822;6.754;2023-03-01T03:11:03;13.68;;;7.28;;
65459;SDS011;52058;49.822;6.754;2023-03-01T03:13:30;13.20;;;7.18;;
65459;SDS011;52058;49.822;6.754;2023-03-01T03:15:58;11.82;;;7.10;;
65459;SDS011;52058;49.822;6.754;2023-03-01T03:18:25;14.43;;;7.88;;
65459;SDS011;52058;49.822;6.754;2023-03-01T03:20:52;14.05;;;7.13;;
65459;SDS011;52058;49.822;6.754;2023-03-01T03:23:20;14.50;;;7.47;;
65459;SDS011;52058;49.822;6.754;2023-03-01T03:25:47;14.57;;;7.88;;
65459;SDS011;52058;49.822;6.754;2023-03-01T03:28:14;13.88;;;7.82;;
65459;SDS011;52058;49.822;6.754;2023-03-01T03:30:43;13.57;;;7.47;;
65459;SDS011;52058;49.822;6.754;2023-03-01T03:33:11;14.80;;;7.10;;
65459;SDS011;52058;49.822;6.754;2023-03-01T03:35:39;13.30;;;7.80;;
65459;SDS011;52058;49.822;6.754;2023-03-01T03:38:08;15.13;;;7.63;;
65459;SDS011;52058;49.822;6.754;2023-03-01T03:40:41;13.10;;;7.75;;
65459;SDS011;52058;49.822;6.754;2023-03-01T03:43:09;14.30;;;7.70;;
65459;SDS011;52058;49.822;6.754;2023-03-01T03:45:37;14.18;;;7.22;;
65459;SDS011;52058;49.822;6.754;2023-03-01T03:48:04;17.10;;;7.97;;
65459;SDS011;52058;49.822;6.754;2023-03-01T03:50:35;13.45;;;6.95;;
65459;SDS011;52058;49.822;6.754;2023-03-01T03:53:03;13.23;;;7.78;;
65459;SDS011;52058;49.822;6.754;2023-03-01T03:55:31;13.68;;;7.25;;
65459;SDS011;52058;49.822;6.754;2023-03-01T03:57:59;12.77;;;6.90;;
65459;SDS011;52058;49.822;6.754;2023-03-01T04:00:31;14.77;;;7.88;;
65459;SDS011;52058;49.822;6.754;2023-03-01T04:02:59;13.82;;;7.55;;
65459;SDS011;52058;49.822;6.754;2023-03-01T04:05:26;13.30;;;7.82;;
65459;SDS011;52058;49.822;6.754;2023-03-01T04:07:55;13.80;;;7.97;;
65459;SDS011;52058;49.822;6.754;2023-03-01T04:10:32;14.50;;;7.57;;
65459;SDS011;52058;49.822;6.754;2023-03-01T04:13:00;13.32;;;8.00;;
65459;SDS011;52058;49.822;6.754;2023-03-01T04:15:27;12.52;;;7.78;;
65459;SDS011;52058;49.822;6.754;2023-03-01T04:17:54;16.58;;;8.00;;
65459;SDS011;52058;49.822;6.754;2023-03-01T04:20:22;14.68;;;7.65;;
65459;SDS011;52058;49.822;6.754;2023-03-01T04:22:51;18.08;;;8.85;;
65459;SDS011;52058;49.822;6.754;2023-03-01T04:25:20;13.18;;;7.82;;
65459;SDS011;52058;49.822;6.754;2023-03-01T04:27:46;17.05;;;8.10;;
65459;SDS011;52058;49.822;6.754;2023-03-01T04:30:13;16.02;;;8.52;;
65459;SDS011;52058;49.822;6.754;2023-03-01T04:32:40;13.68;;;8.35;;
65459;SDS011;52058;49.822;6.754;2023-03-01T04:35:07;14.88;;;8.20;;
65459;SDS011;52058;49.822;6.754;2023-03-01T04:37:34;14.93;;;8.18;;
65459;SDS011;52058;49.822;6.754;2023-03-01T04:40:01;14.43;;;8.85;;
65459;SDS011;52058;49.822;6.754;2023-03-01T04:42:38;18.27;;;8.27;;
65459;SDS011;52058;49.822;6.754;2023-03-01T04:45:05;15.88;;;8.27;;
65459;SDS011;52058;49.822;6.754;2023-03-01T04:47:38;14.90;;;8.27;;
65459;SDS011;52058;49.822;6.754;2023-03-01T04:50:05;14.20;;;7.60;;
65459;SDS011;52058;49.822;6.754;2023-03-01T04:52:32;14.60;;;8.13;;
65459;SDS011;52058;49.822;6.754;2023-03-01T04:54:59;14.15;;;7.85;;
65459;SDS011;52058;49.822;6.754;2023-03-01T04:57:25;16.15;;;8.70;;
65459;SDS011;52058;49.822;6.754;2023-03-01T04:59:53;12.75;;;8.02;;
65459;SDS011;52058;49.822;6.754;2023-03-01T05:02:20;13.63;;;7.57;;
65459;SDS011;52058;49.822;6.754;2023-03-01T05:04:47;15.80;;;8.10;;
65459;SDS011;52058;49.822;6.754;2023-03-01T05:07:13;16.15;;;8.70;;
65459;SDS011;52058;49.822;6.754;2023-03-01T05:09:44;15.20;;;8.25;;
65459;SDS011;52058;49.822;6.754;2023-03-01T05:12:11;15.85;;;8.90;;
65459;SDS011;52058;49.822;6.754;2023-03-01T05:14:37;14.73;;;8.18;;
65459;SDS011;52058;49.822;6.754;2023-03-01T05:17:05;15.63;;;8.90;;
65459;SDS011;52058;49.822;6.754;2023-03-01T05:19:32;16.15;;;8.70;;
65459;SDS011;52058;49.822;6.754;2023-03-01T05:21:59;17.13;;;8.20;;
65459;SDS011;52058;49.822;6.754;2023-03-01T05:24:30;17.80;;;9.57;;
65459;SDS011;52058;49.822;6.754;2023-03-01T05:26:58;14.70;;;8.32;;
65459;SDS011;52058;49.822;6.754;2023-03-01T05:29:25;15.77;;;9.43;;
65459;SDS011;52058;49.822;6.754;2023-03-01T05:31:54;17.85;;;8.30;;
65459;SDS011;52058;49.822;6.754;2023-03-01T05:34:24;15.80;;;8.57;;
65459;SDS011;52058;49.822;6.754;2023-03-01T05:36:52;18.08;;;8.50;;
65459;SDS011;52058;49.822;6.754;2023-03-01T05:39:19;18.80;;;9.48;;
65459;SDS011;52058;49.822;6.754;2023-03-01T05:41:47;19.80;;;8.80;;
65459;SDS011;52058;49.822;6.754;2023-03-01T05:44:14;17.50;;;9.18;;
65459;SDS011;52058;49.822;6.754;2023-03-01T05:46:40;17.85;;;9.15;;
65459;SDS011;52058;49.822;6.754;2023-03-01T05:49:07;20.92;;;8.52;;
65459;SDS011;52058;49.822;6.754;2023-03-01T05:51:35;20.27;;;9.63;;
65459;SDS011;52058;49.822;6.754;2023-03-01T05:54:02;17.90;;;9.00;;
65459;SDS011;52058;49.822;6.754;2023-03-01T05:56:31;22.52;;;9.63;;
65459;SDS011;52058;49.822;6.754;2023-03-01T05:58:58;40.15;;;19.17;;
65459;SDS011;52058;49.822;6.754;2023-03-01T06:01:25;22.38;;;12.18;;
65459;SDS011;52058;49.822;6.754;2023-03-01T06:03:52;17.00;;;9.43;;
65459;SDS011;52058;49.822;6.754;2023-03-01T06:06:18;18.02;;;9.13;;
65459;SDS011;52058;49.822;6.754;2023-03-01T06:08:46;20.20;;;9.35;;
65459;SDS011;52058;49.822;6.754;2023-03-01T06:11:13;17.98;;;9.90;;
65459;SDS011;52058;49.822;6.754;2023-03-01T06:13:40;18.27;;;9.32;;
65459;SDS011;52058;49.822;6.754;2023-03-01T06:16:07;17.73;;;9.45;;
65459;SDS011;52058;49.822;6.754;2023-03-01T06:18:34;17.52;;;9.45;;
65459;SDS011;52058;49.822;6.754;2023-03-01T06:21:01;18.67;;;9.77;;
65459;SDS011;52058;49.822;6.754;2023-03-01T06:23:28;19.45;;;9.75;;
65459;SDS011;52058;49.822;6.754;2023-03-01T06:25:56;18.35;;;10.55;;
65459;SDS011;52058;49.822;6.754;2023-03-01T06:28:22;20.63;;;10.43;;
65459;SDS011;52058;49.822;6.754;2023-03-01T06:30:49;17.02;;;9.77;;
65459;SDS011;52058;49.822;6.754;2023-03-01T06:33:16;28.55;;;16.98;;
65459;SDS011;52058;49.822;6.754;2023-03-01T06:35:45;25.10;;;11.25;;
65459;SDS011;52058;49.822;6.754;2023-03-01T06:38:11;23.20;;;11.60;;
65459;SDS011;52058;49.822;6.754;2023-03-01T06:40:40;31.13;;;15.35;;
65459;SDS011;52058;49.822;6.754;2023-03-01T06:43:08;37.70;;;17.40;;
65459;SDS011;52058;49.822;6.754;2023-03-01T06:45:34;33.10;;;15.82;;
65459;SDS011;52058;49.822;6.754;2023-03-01T06:48:02;29.63;;;13.10;;
65459;SDS011;52058;49.822;6.754;2023-03-01T06:50:30;23.17;;;11.02;;
65459;SDS011;52058;49.822;6.754;2023-03-01T06:52:57;21.63;;;10.27;;
65459;SDS011;52058;49.822;6.754;2023-03-01T06:55:24;21.13;;;10.73;;
65459;SDS011;52058;49.822;6.754;2023-03-01T06:57:53;18.58;;;10.02;;
65459;SDS011;52058;49.822;6.754;2023-03-01T07:00:23;25.58;;;10.63;;
65459;SDS011;52058;49.822;6.754;2023-03-01T07:02:50;20.02;;;10.48;;
65459;SDS011;52058;49.822;6.754;2023-03-01T07:05:17;21.45;;;11.00;;
65459;SDS011;52058;49.822;6.754;2023-03-01T07:07:44;19.77;;;10.48;;
65459;SDS011;52058;49.822;6.754;2023-03-01T07:10:10;20.75;;;10.38;;
65459;SDS011;52058;49.822;6.754;2023-03-01T07:12:37;22.38;;;10.80;;
65459;SDS011;52058;49.822;6.754;2023-03-01T07:15:07;21.90;;;9.90;;
65459;SDS011;52058;49.822;6.754;2023-03-01T07:17:36;20.80;;;10.20;;
65459;SDS011;52058;49.822;6.754;2023-03-01T07:20:03;21.00;;;10.18;;
65459;SDS011;52058;49.822;6.754;2023-03-01T07:22:30;20.95;;;9.95;;
65459;SDS011;52058;49.822;6.754;2023-03-01T07:24:57;19.50;;;9.98;;
65459;SDS011;52058;49.822;6.754;2023-03-01T07:27:23;24.27;;;10.30;;
65459;SDS011;52058;49.822;6.754;2023-03-01T07:29:50;24.02;;;10.52;;
65459;SDS011;52058;49.822;6.754;2023-03-01T07:32:16;20.38;;;10.20;;
65459;SDS011;52058;49.822;6.754;2023-03-01T07:34:44;21.98;;;10.68;;
65459;SDS011;52058;49.822;6.754;2023-03-01T07:37:11;20.60;;;10.20;;
65459;SDS011;52058;49.822;6.754;2023-03-01T07:39:37;21.65;;;10.05;;
65459;SDS011;52058;49.822;6.754;2023-03-01T07:42:04;19.30;;;9.40;;
65459;SDS011;52058;49.822;6.754;2023-03-01T07:44:30;20.15;;;9.90;;
65459;SDS011;52058;49.822;6.754;2023-03-01T07:46:57;19.83;;;9.63;;
65459;SDS011;52058;49.822;6.754;2023-03-01T07:49:24;20.08;;;10.18;;
65459;SDS011;52058;49.822;6.754;2023-03-01T07:51:52;19.67;;;10.25;;
65459;SDS011;52058;49.822;6.754;2023-03-01T07:54:19;17.88;;;10.38;;
65459;SDS011;52058;49.822;6.754;2023-03-01T07:56:45;24.45;;;10.15;;
65459;SDS011;52058;49.822;6.754;2023-03-01T07:59:12;23.10;;;9.98;;
65459;SDS011;52058;49.822;6.754;2023-03-01T08:01:38;20.10;;;10.27;;
65459;SDS011;52058;49.822;6.754;2023-03-01T08:04:05;22.80;;;10.25;;
65459;SDS011;52058;49.822;6.754;2023-03-01T08:06:33;19.67;;;9.98;;
65459;SDS011;52058;49.822;6.754;2023-03-01T08:09:02;18.55;;;9.68;;
65459;SDS011;52058;49.822;6.754;2023-03-01T08:11:29;18.17;;;10.10;;
65459;SDS011;52058;49.822;6.754;2023-03-01T08:13:55;18.23;;;10.13;;
65459;SDS011;52058;49.822;6.754;2023-03-01T08:16:22;16.73;;;9.23;;
65459;SDS011;52058;49.822;6.754;2023-03-01T08:18:49;19.38;;;10.27;;
65459;SDS011;52058;49.822;6.754;2023-03-01T08:21:16;18.50;;;10.88;;
65459;SDS011;52058;49.822;6.754;2023-03-01T08:23:43;16.48;;;9.05;;
65459;SDS011;52058;49.822;6.754;2023-03-01T08:26:13;27.92;;;11.57;;
65459;SDS011;52058;49.822;6.754;2023-03-01T08:28:40;20.65;;;10.23;;
65459;SDS011;52058;49.822;6.754;2023-03-01T08:31:14;16.17;;;9.02;;
65459;SDS011;52058;49.822;6.754;2023-03-01T08:33:41;19.17;;;9.73;;
65459;SDS011;52058;49.822;6.754;2023-03-01T08:36:08;17.88;;;9.88;;
65459;SDS011;52058;49.822;6.754;2023-03-01T08:38:35;20.52;;;9.95;;
65459;SDS011;52058;49.822;6.754;2023-03-01T08:41:02;21.60;;;10.23;;
65459;SDS011;52058;49.822;6.754;2023-03-01T08:43:30;17.45;;;9.27;;
65459;SDS011;52058;49.822;6.754;2023-03-01T08:45:57;20.63;;;10.52;;
65459;SDS011;52058;49.822;6.754;2023-03-01T08:48:24;21.85;;;10.32;;
65459;SDS011;52058;49.822;6.754;2023-03-01T08:50:50;16.40;;;9.73;;
65459;SDS011;52058;49.822;6.754;2023-03-01T08:53:17;19.70;;;9.80;;
65459;SDS011;52058;49.822;6.754;2023-03-01T08:55:43;20.25;;;9.98;;
65459;SDS011;52058;49.822;6.754;2023-03-01T08:58:10;19.88;;;9.75;;
65459;SDS011;52058;49.822;6.754;2023-03-01T09:00:38;16.42;;;9.32;;
65459;SDS011;52058;49.822;6.754;2023-03-01T09:03:05;16.85;;;9.43;;
65459;SDS011;52058;49.822;6.754;2023-03-01T09:05:31;16.27;;;8.98;;
65459;SDS011;52058;49.822;6.754;2023-03-01T09:07:58;20.23;;;10.38;;
65459;SDS011;52058;49.822;6.754;2023-03-01T09:10:25;17.92;;;9.70;;
65459;SDS011;52058;49.822;6.754;2023-03-01T09:12:51;15.77;;;9.60;;
65459;SDS011;52058;49.822;6.754;2023-03-01T09:15:18;21.52;;;10.20;;
65459;SDS011;52058;49.822;6.754;2023-03-01T09:17:46;19.77;;;10.15;;
65459;SDS011;52058;49.822;6.754;2023-03-01T09:20:13;18.48;;;9.55;;
65459;SDS011;52058;49.822;6.754;2023-03-01T09:22:39;22.75;;;10.13;;
65459;SDS011;52058;49.822;6.754;2023-03-01T09:25:06;18.92;;;9.10;;
65459;SDS011;52058;49.822;6.754;2023-03-01T09:27:33;24.02;;;10.05;;
65459;SDS011;52058;49.822;6.754;2023-03-01T09:30:00;17.60;;;9.00;;
65459;SDS011;52058;49.822;6.754;2023-03-01T09:32:26;20.85;;;10.15;;
65459;SDS011;52058;49.822;6.754;2023-03-01T09:34:54;18.85;;;9.18;;
65459;SDS011;52058;49.822;6.754;2023-03-01T09:37:33;16.70;;;9.32;;
65459;SDS011;52058;49.822;6.754;2023-03-01T09:40:00;20.92;;;9.77;;
65459;SDS011;52058;49.822;6.754;2023-03-01T09:42:28;18.88;;;9.73;;
65459;SDS011;52058;49.822;6.754;2023-03-01T09:44:57;17.33;;;9.52;;
65459;SDS011;52058;49.822;6.754;2023-03-01T09:47:28;17.83;;;9.90;;
65459;SDS011;52058;49.822;6.754;2023-03-01T09:50:02;25.25;;;10.38;;
65459;SDS011;52058;49.822;6.754;2023-03-01T09:52:36;21.55;;;10.18;;
65459;SDS011;52058;49.822;6.754;2023-03-01T09:55:08;18.65;;;10.05;;
65459;SDS011;52058;49.822;6.754;2023-03-01T09:57:38;18.15;;;10.27;;
65459;SDS011;52058;49.822;6.754;2023-03-01T10:00:14;19.23;;;10.00;;
65459;SDS011;52058;49.822;6.754;2023-03-01T10:02:48;19.15;;;9.90;;
65459;SDS011;52058;49.822;6.754;2023-03-01T10:05:25;16.50;;;9.57;;
65459;SDS011;52058;49.822;6.754;2023-03-01T10:08:02;17.80;;;9.02;;
65459;SDS011;52058;49.822;6.754;2023-03-01T10:10:46;16.58;;;9.75;;
65459;SDS011;52058;49.822;6.754;2023-03-01T10:13:15;18.00;;;9.18;;
65459;SDS011;52058;49.822;6.754;2023-03-01T10:15:47;17.33;;;9.38;;
65459;SDS011;52058;49.822;6.754;2023-03-01T10:18:20;20.08;;;9.13;;
65459;SDS011;52058;49.822;6.754;2023-03-01T10:20:52;16.95;;;9.38;;
65459;SDS011;52058;49.822;6.754;2023-03-01T10:23:20;17.60;;;9.27;;
65459;SDS011;52058;49.822;6.754;2023-03-01T10:25:53;18.40;;;9.50;;
65459;SDS011;52058;49.822;6.754;2023-03-01T10:28:29;13.80;;;8.48;;
65459;SDS011;52058;49.822;6.754;2023-03-01T10:31:04;15.82;;;9.10;;
65459;SDS011;52058;49.822;6.754;2023-03-01T10:33:32;19.20;;;10.63;;
65459;SDS011;52058;49.822;6.754;2023-03-01T10:36:02;16.52;;;9.50;;
65459;SDS011;52058;49.822;6.754;2023-03-01T10:38:30;18.08;;;10.27;;
65459;SDS011;52058;49.822;6.754;2023-03-01T10:41:12;16.77;;;9.32;;
65459;SDS011;52058;49.822;6.754;2023-03-01T10:43:43;17.67;;;9.23;;
65459;SDS011;52058;49.822;6.754;2023-03-01T10:46:21;17.90;;;9.18;;
65459;SDS011;52058;49.822;6.754;2023-03-01T10:48:55;16.58;;;9.60;;
65459;SDS011;52058;49.822;6.754;2023-03-01T10:51:33;20.33;;;9.40;;
65459;SDS011;52058;49.822;6.754;2023-03-01T10:54:00;19.67;;;9.35;;
65459;SDS011;52058;49.822;6.754;2023-03-01T10:56:28;16.90;;;9.65;;
65459;SDS011;52058;49.822;6.754;2023-03-01T10:59:22;18.60;;;9.27;;
65459;SDS011;52058;49.822;6.754;2023-03-01T11:02:04;20.95;;;9.32;;
65459;SDS011;52058;49.822;6.754;2023-03-01T11:04:55;16.75;;;8.93;;
65459;SDS011;52058;49.822;6.754;2023-03-01T11:07:24;17.52;;;9.32;;
65459;SDS011;52058;49.822;6.754;2023-03-01T11:09:51;18.65;;;10.15;;
65459;SDS011;52058;49.822;6.754;2023-03-01T11:12:17;17.60;;;9.85;;
65459;SDS011;52058;49.822;6.754;2023-03-01T11:14:48;18.05;;;9.85;;
65459;SDS011;52058;49.822;6.754;2023-03-01T11:17:17;16.80;;;9.95;;
65459;SDS011;52058;49.822;6.754;2023-03-01T11:19:53;18.00;;;9.48;;
65459;SDS011;52058;49.822;6.754;2023-03-01T11:22:27;16.23;;;9.30;;
65459;SDS011;52058;49.822;6.754;2023-03-01T11:24:56;16.75;;;9.50;;
65459;SDS011;52058;49.822;6.754;2023-03-01T11:27:24;19.13;;;10.68;;
65459;SDS011;52058;49.822;6.754;2023-03-01T11:29:54;18.15;;;9.88;;
65459;SDS011;52058;49.822;6.754;2023-03-01T11:32:26;18.13;;;9.75;;
65459;SDS011;52058;49.822;6.754;2023-03-01T11:34:57;16.70;;;9.52;;
65459;SDS011;52058;49.822;6.754;2023-03-01T11:37:32;14.43;;;8.95;;
65459;SDS011;52058;49.822;6.754;2023-03-01T11:40:04;19.63;;;10.07;;
65459;SDS011;52058;49.822;6.754;2023-03-01T11:42:42;19.75;;;10.38;;
65459;SDS011;52058;49.822;6.754;2023-03-01T11:45:25;19.08;;;9.88;;
65459;SDS011;52058;49.822;6.754;2023-03-01T11:48:07;18.50;;;10.43;;
65459;SDS011;52058;49.822;6.754;2023-03-01T11:50:54;18.67;;;9.32;;
65459;SDS011;52058;49.822;6.754;2023-03-01T11:53:28;19.75;;;10.38;;
65459;SDS011;52058;49.822;6.754;2023-03-01T11:56:04;18.83;;;9.25;;
65459;SDS011;52058;49.822;6.754;2023-03-01T11:58:44;19.10;;;9.45;;
65459;SDS011;52058;49.822;6.754;2023-03-01T12:04:30;18.67;;;9.98;;
65459;SDS011;52058;49.822;6.754;2023-03-01T12:07:18;18.35;;;10.32;;
65459;SDS011;52058;49.822;6.754;2023-03-01T12:09:56;19.23;;;9.77;;
65459;SDS011;52058;49.822;6.754;2023-03-01T12:12:36;21.92;;;10.27;;
65459;SDS011;52058;49.822;6.754;2023-03-01T12:18:19;18.05;;;9.77;;
65459;SDS011;52058;49.822;6.754;2023-03-01T12:20:58;16.57;;;9.87;;
65459;SDS011;52058;49.822;6.754;2023-03-01T12:23:34;18.20;;;10.43;;
65459;SDS011;52058;49.822;6.754;2023-03-01T12:26:26;17.33;;;10.20;;
65459;SDS011;52058;49.822;6.754;2023-03-01T12:28:59;15.30;;;9.13;;
65459;SDS011;52058;49.822;6.754;2023-03-01T12:34:35;17.70;;;9.98;;
65459;SDS011;52058;49.822;6.754;2023-03-01T12:37:15;17.67;;;10.18;;
65459;SDS011;52058;49.822;6.754;2023-03-01T12:39:51;18.45;;;10.40;;
65459;SDS011;52058;49.822;6.754;2023-03-01T12:42:31;17.75;;;9.95;;
65459;SDS011;52058;49.822;6.754;2023-03-01T12:45:05;22.13;;;10.85;;
65459;SDS011;52058;49.822;6.754;2023-03-01T12:47:52;18.77;;;9.45;;
65459;SDS011;52058;49.822;6.754;2023-03-01T12:50:37;16.73;;;9.93;;
65459;SDS011;52058;49.822;6.754;2023-03-01T12:53:07;19.00;;;10.52;;
65459;SDS011;52058;49.822;6.754;2023-03-01T12:55:46;19.77;;;10.40;;
65459;SDS011;52058;49.822;6.754;2023-03-01T12:58:17;19.77;;;10.50;;
65459;SDS011;52058;49.822;6.754;2023-03-01T13:00:53;25.98;;;10.55;;
65459;SDS011;52058;49.822;6.754;2023-03-01T13:03:30;19.02;;;10.23;;
65459;SDS011;52058;49.822;6.754;2023-03-01T13:06:04;17.08;;;10.00;;
65459;SDS011;52058;49.822;6.754;2023-03-01T13:08:38;17.58;;;9.63;;
65459;SDS011;52058;49.822;6.754;2023-03-01T13:11:11;18.13;;;10.70;;
65459;SDS011;52058;49.822;6.754;2023-03-01T13:13:45;19.33;;;10.38;;
65459;SDS011;52058;49.822;6.754;2023-03-01T13:16:20;18.67;;;10.20;;
65459;SDS011;52058;49.822;6.754;2023-03-01T13:19:07;18.30;;;10.13;;
65459;SDS011;52058;49.822;6.754;2023-03-01T13:21:38;15.40;;;9.48;;
65459;SDS011;52058;49.822;6.754;2023-03-01T13:27:09;16.30;;;9.25;;
65459;SDS011;52058;49.822;6.754;2023-03-01T13:29:51;14.52;;;8.70;;
65459;SDS011;52058;49.822;6.754;2023-03-01T13:32:20;16.38;;;9.77;;
65459;SDS011;52058;49.822;6.754;2023-03-01T13:34:49;16.70;;;9.68;;
65459;SDS011;52058;49.822;6.754;2023-03-01T13:37:27;15.35;;;9.73;;
65459;SDS011;52058;49.822;6.754;2023-03-01T13:40:00;22.35;;;10.07;;
65459;SDS011;52058;49.822;6.754;2023-03-01T13:42:37;14.85;;;9.73;;
65459;SDS011;52058;49.822;6.754;2023-03-01T13:45:18;17.15;;;9.88;;
65459;SDS011;52058;49.822;6.754;2023-03-01T13:47:48;15.98;;;10.30;;
65459;SDS011;52058;49.822;6.754;2023-03-01T13:50:19;14.45;;;10.13;;
65459;SDS011;52058;49.822;6.754;2023-03-01T13:52:50;15.15;;;9.57;;
65459;SDS011;52058;49.822;6.754;2023-03-01T13:55:23;13.15;;;9.75;;
65459;SDS011;52058;49.822;6.754;2023-03-01T13:57:53;17.92;;;10.25;;
65459;SDS011;52058;49.822;6.754;2023-03-01T14:03:08;17.35;;;10.55;;
65459;SDS011;52058;49.822;6.754;2023-03-01T14:05:37;15.02;;;10.48;;
65459;SDS011;52058;49.822;6.754;2023-03-01T14:08:05;16.88;;;10.73;;
65459;SDS011;52058;49.822;6.754;2023-03-01T14:10:45;14.50;;;11.20;;
65459;SDS011;52058;49.822;6.754;2023-03-01T14:13:23;16.20;;;11.15;;
65459;SDS011;52058;49.822;6.754;2023-03-01T14:16:04;14.43;;;10.00;;
65459;SDS011;52058;49.822;6.754;2023-03-01T14:18:43;14.93;;;10.90;;
65459;SDS011;52058;49.822;6.754;2023-03-01T14:21:18;14.10;;;10.10;;
65459;SDS011;52058;49.822;6.754;2023-03-01T14:23:45;13.57;;;10.73;;
65459;SDS011;52058;49.822;6.754;2023-03-01T14:26:12;14.93;;;10.07;;
65459;SDS011;52058;49.822;6.754;2023-03-01T14:28:39;15.15;;;10.23;;
65459;SDS011;52058;49.822;6.754;2023-03-01T14:34:03;15.27;;;9.82;;
65459;SDS011;52058;49.822;6.754;2023-03-01T14:36:32;13.52;;;9.75;;
65459;SDS011;52058;49.822;6.754;2023-03-01T14:39:00;16.05;;;9.30;;
65459;SDS011;52058;49.822;6.754;2023-03-01T14:41:31;15.18;;;9.20;;
65459;SDS011;52058;49.822;6.754;2023-03-01T14:44:01;17.90;;;9.45;;
65459;SDS011;52058;49.822;6.754;2023-03-01T14:46:32;13.82;;;8.70;;
65459;SDS011;52058;49.822;6.754;2023-03-01T14:49:03;15.18;;;9.15;;
65459;SDS011;52058;49.822;6.754;2023-03-01T14:51:34;15.27;;;9.43;;
65459;SDS011;52058;49.822;6.754;2023-03-01T14:54:03;14.95;;;9.45;;
65459;SDS011;52058;49.822;6.754;2023-03-01T14:56:44;16.17;;;9.02;;
65459;SDS011;52058;49.822;6.754;2023-03-01T14:59:12;13.27;;;8.13;;
65459;SDS011;52058;49.822;6.754;2023-03-01T15:01:39;14.20;;;8.35;;
65459;SDS011;52058;49.822;6.754;2023-03-01T15:04:09;14.15;;;8.43;;